DGAA

Accra/Kotoka

Airport
ICAO code
DGAA
Summary
ICAO Region
AFI
ICAO Territory
Location

Accra,

Coordinates
5° 36' 19" N , 0° 10' 0" W
KCC
Metar
DGAA 252300Z 19007KT CAVOK 28/26 Q1012 NOSIG

Description

International airport serving the capital of Ghana.

Climatology

Tropical Savanna climate (Köppen climate classification Aw)

Runways

Designator Length Width Surface Rops
3/21 3403 61 ASP Yes/Yes

Airport map

Aerial View

SKYbrary Partners:

Safety knowledge contributed by: